createdAt,value
2018-07-07T00:01:16.184Z,99.90
2018-07-07T00:03:44.788Z,99.90
2018-07-07T00:06:13.368Z,99.90
2018-07-07T00:08:41.940Z,99.90
2018-07-07T00:11:10.494Z,99.90
2018-07-07T00:13:39.116Z,99.90
2018-07-07T00:16:07.824Z,99.90
2018-07-07T00:18:36.385Z,99.90
2018-07-07T00:21:04.949Z,99.90
2018-07-07T00:23:33.473Z,99.90
2018-07-07T00:26:02.989Z,99.90
2018-07-07T00:28:31.947Z,99.90
2018-07-07T00:31:00.496Z,99.90
2018-07-07T00:33:29.047Z,99.90
2018-07-07T00:35:57.762Z,99.90
2018-07-07T00:38:26.305Z,99.90
2018-07-07T00:40:54.870Z,99.90
2018-07-07T00:43:23.442Z,99.90
2018-07-07T00:45:52.108Z,99.90
2018-07-07T00:48:20.672Z,99.90
2018-07-07T00:50:49.182Z,99.90
2018-07-07T00:53:17.793Z,99.90
2018-07-07T00:55:46.358Z,99.90
2018-07-07T00:58:14.918Z,99.90
2018-07-07T01:00:50.509Z,99.90
2018-07-07T01:03:19.338Z,99.90
2018-07-07T01:08:17.432Z,99.90
2018-07-07T01:10:45.986Z,99.90
2018-07-07T01:13:15.301Z,99.90
2018-07-07T01:15:43.896Z,99.90
2018-07-07T01:18:12.449Z,99.90
2018-07-07T01:20:41.069Z,99.90
2018-07-07T01:25:37.860Z,99.90
2018-07-07T01:28:06.737Z,99.90
2018-07-07T01:30:35.299Z,99.90
2018-07-07T01:33:03.861Z,99.90
2018-07-07T01:35:32.425Z,99.90
2018-07-07T01:38:00.998Z,99.90
2018-07-07T01:40:29.572Z,99.90
2018-07-07T01:42:58.087Z,99.90
2018-07-07T01:45:26.660Z,99.90
2018-07-07T01:47:55.160Z,99.90
2018-07-07T01:50:23.697Z,99.90
2018-07-07T01:52:52.223Z,99.90
2018-07-07T01:55:20.785Z,99.90
2018-07-07T01:57:49.325Z,99.90
2018-07-07T02:00:17.824Z,99.90
2018-07-07T02:02:46.431Z,99.90
2018-07-07T02:05:14.960Z,99.90
2018-07-07T02:07:43.552Z,99.90
2018-07-07T02:10:12.137Z,99.90
2018-07-07T02:12:40.669Z,99.90
2018-07-07T02:15:09.312Z,99.90
2018-07-07T02:17:37.897Z,99.90
2018-07-07T02:20:06.498Z,99.90
2018-07-07T02:22:35.129Z,99.90
2018-07-07T02:25:03.718Z,99.90
2018-07-07T02:27:32.288Z,99.90
2018-07-07T02:30:00.853Z,99.90
2018-07-07T02:32:29.432Z,99.90
2018-07-07T02:34:57.970Z,99.90
2018-07-07T02:37:26.536Z,99.90
2018-07-07T02:39:55.080Z,99.90
2018-07-07T02:42:23.640Z,99.90
2018-07-07T02:44:52.161Z,99.90
2018-07-07T02:47:20.746Z,99.90
2018-07-07T02:49:49.313Z,99.90
2018-07-07T02:52:17.917Z,99.90
2018-07-07T02:54:46.482Z,99.90
2018-07-07T02:57:15.340Z,99.90
2018-07-07T02:59:43.903Z,99.90
2018-07-07T03:02:12.424Z,99.90
2018-07-07T03:04:41.201Z,99.90
2018-07-07T03:07:09.841Z,99.90
2018-07-07T03:09:38.411Z,99.90
2018-07-07T03:12:07.229Z,99.90
2018-07-07T03:14:35.799Z,99.90
2018-07-07T03:17:04.348Z,99.90
2018-07-07T03:19:32.941Z,99.90
2018-07-07T03:22:01.525Z,99.90
2018-07-07T03:24:30.207Z,99.90
2018-07-07T03:26:58.972Z,99.90
2018-07-07T03:29:27.502Z,99.90
2018-07-07T03:31:56.043Z,99.90
2018-07-07T03:34:24.589Z,99.90
2018-07-07T03:36:53.406Z,99.90
2018-07-07T03:39:21.969Z,99.90
2018-07-07T03:41:50.488Z,99.90
2018-07-07T03:44:19.049Z,99.90
2018-07-07T03:46:47.557Z,99.90
2018-07-07T03:49:16.112Z,99.90
2018-07-07T03:54:12.942Z,99.90
2018-07-07T03:56:41.472Z,99.90
2018-07-07T03:59:10.069Z,99.90
2018-07-07T04:01:38.608Z,99.90
2018-07-07T04:04:07.460Z,99.90
2018-07-07T04:06:36.040Z,99.90
2018-07-07T04:09:05.654Z,99.90
2018-07-07T04:11:34.256Z,99.90
2018-07-07T04:14:02.797Z,99.90
2018-07-07T04:16:31.369Z,99.90
2018-07-07T04:21:28.244Z,99.90
2018-07-07T04:23:56.763Z,99.90
2018-07-07T04:26:25.337Z,99.90
2018-07-07T04:28:53.991Z,99.90
2018-07-07T04:31:22.540Z,99.90
2018-07-07T04:33:51.100Z,99.90
2018-07-07T04:36:19.668Z,99.90
2018-07-07T04:38:48.238Z,99.90
2018-07-07T04:41:16.816Z,99.90
2018-07-07T04:43:45.371Z,99.90
2018-07-07T04:46:13.924Z,99.90
2018-07-07T04:48:42.452Z,99.90
2018-07-07T04:53:39.300Z,99.90
2018-07-07T04:56:07.929Z,99.90
2018-07-07T04:58:36.449Z,99.90
2018-07-07T05:01:05.005Z,99.90
2018-07-07T05:03:33.616Z,99.90
2018-07-07T05:06:02.205Z,99.90
2018-07-07T05:08:30.775Z,99.90
2018-07-07T05:10:59.366Z,99.90
2018-07-07T05:13:27.940Z,99.90
2018-07-07T05:15:56.536Z,99.90
2018-07-07T05:18:25.073Z,99.90
2018-07-07T05:20:53.684Z,99.90
2018-07-07T05:23:22.225Z,99.90
2018-07-07T05:28:19.101Z,99.90
2018-07-07T05:30:47.660Z,99.90
2018-07-07T05:33:16.237Z,99.90
2018-07-07T05:35:44.826Z,99.90
2018-07-07T05:38:13.400Z,99.90
2018-07-07T05:40:41.936Z,99.90
2018-07-07T05:43:10.498Z,99.90
2018-07-07T05:48:07.295Z,99.90
2018-07-07T05:50:35.857Z,99.90
2018-07-07T05:53:04.452Z,99.90
2018-07-07T05:55:33.003Z,99.90
2018-07-07T05:58:01.525Z,99.90
2018-07-07T06:00:30.081Z,99.90
2018-07-07T06:02:58.601Z,99.90
2018-07-07T06:05:27.173Z,99.90
2018-07-07T06:07:55.714Z,99.90
2018-07-07T06:10:24.271Z,99.90
2018-07-07T06:12:52.831Z,99.90
2018-07-07T06:15:21.437Z,99.90
2018-07-07T06:17:49.957Z,99.90
2018-07-07T06:22:46.762Z,99.90
2018-07-07T06:25:15.333Z,99.90
2018-07-07T06:27:43.883Z,99.90
2018-07-07T06:30:12.445Z,99.90
2018-07-07T06:32:40.984Z,99.90
2018-07-07T06:35:09.692Z,99.90
2018-07-07T06:37:38.213Z,99.90
2018-07-07T06:40:06.777Z,99.90
2018-07-07T06:42:35.319Z,99.90
2018-07-07T06:45:03.937Z,99.90
2018-07-07T06:47:32.469Z,99.90
2018-07-07T06:50:01.037Z,99.90
2018-07-07T06:54:57.811Z,99.90
2018-07-07T06:59:54.580Z,99.90
2018-07-07T07:02:23.317Z,99.90
2018-07-07T07:04:51.875Z,99.90
2018-07-07T07:07:20.456Z,99.90
2018-07-07T07:09:48.997Z,99.90
2018-07-07T07:14:45.830Z,99.90
2018-07-07T07:17:14.391Z,99.90
2018-07-07T07:19:42.983Z,99.90
2018-07-07T07:22:11.541Z,99.90
2018-07-07T07:24:40.264Z,99.90
2018-07-07T07:27:08.832Z,99.90
2018-07-07T07:29:37.435Z,99.90
2018-07-07T07:32:06.141Z,99.90
2018-07-07T07:34:34.686Z,99.90
2018-07-07T07:37:03.309Z,99.90
2018-07-07T07:42:00.117Z,99.90
2018-07-07T07:44:28.696Z,99.90
2018-07-07T07:46:57.224Z,99.90
2018-07-07T07:49:25.804Z,99.90
2018-07-07T07:51:54.377Z,99.90
2018-07-07T07:54:22.929Z,99.90
2018-07-07T07:56:51.505Z,99.90
2018-07-07T07:59:20.044Z,99.90
2018-07-07T08:01:48.671Z,99.90
2018-07-07T08:06:45.507Z,99.90
2018-07-07T08:09:14.430Z,99.90
2018-07-07T08:11:43.017Z,99.90
2018-07-07T08:14:11.615Z,99.90
2018-07-07T08:16:40.151Z,99.90
2018-07-07T08:19:08.804Z,99.90
2018-07-07T08:21:37.324Z,99.90
2018-07-07T08:24:05.885Z,99.90
2018-07-07T08:26:34.496Z,99.90
2018-07-07T08:29:03.064Z,99.90
2018-07-07T08:31:31.643Z,99.90
2018-07-07T08:34:00.164Z,99.90
2018-07-07T08:36:28.744Z,99.90
2018-07-07T08:38:57.474Z,99.90
2018-07-07T08:41:26.015Z,99.90
2018-07-07T08:43:54.555Z,99.90
2018-07-07T08:46:23.483Z,99.90
2018-07-07T08:51:20.315Z,99.90
2018-07-07T08:53:49.308Z,99.90
2018-07-07T08:56:17.838Z,99.90
2018-07-07T08:58:46.384Z,99.90
2018-07-07T09:01:14.949Z,99.90
2018-07-07T09:03:43.486Z,99.90
2018-07-07T09:06:12.057Z,99.90
2018-07-07T09:11:08.948Z,99.90
2018-07-07T09:13:37.506Z,99.90
2018-07-07T09:18:34.302Z,99.90
2018-07-07T09:21:02.888Z,99.90
2018-07-07T09:23:31.452Z,99.90
2018-07-07T09:25:59.976Z,99.90
2018-07-07T09:28:28.542Z,99.90
2018-07-07T09:30:57.142Z,99.90
2018-07-07T09:33:25.667Z,99.90
2018-07-07T09:35:54.267Z,99.90
2018-07-07T09:38:22.863Z,99.90
2018-07-07T09:40:51.461Z,99.90
2018-07-07T09:43:19.992Z,99.90
2018-07-07T09:45:48.562Z,99.90
2018-07-07T09:48:17.144Z,99.90
2018-07-07T09:50:45.754Z,99.90
2018-07-07T09:53:14.340Z,99.90
2018-07-07T09:55:42.879Z,99.90
2018-07-07T09:58:11.549Z,99.90
2018-07-07T10:00:41.585Z,99.90
2018-07-07T10:03:10.620Z,99.90
2018-07-07T10:10:36.550Z,99.90
2018-07-07T10:13:06.050Z,99.90
2018-07-07T10:15:34.856Z,99.90
2018-07-07T10:18:03.461Z,99.90
2018-07-07T10:20:32.415Z,99.90
2018-07-07T10:23:02.276Z,99.90
2018-07-07T10:25:30.809Z,99.90
2018-07-07T10:27:59.373Z,99.90
2018-07-07T10:30:27.921Z,99.90
2018-07-07T10:32:56.634Z,99.90
2018-07-07T10:35:25.168Z,99.90
2018-07-07T10:37:53.748Z,99.90
2018-07-07T10:40:22.309Z,99.90
2018-07-07T10:42:50.797Z,99.90
2018-07-07T10:45:19.629Z,99.90
2018-07-07T10:47:48.094Z,99.90
2018-07-07T10:50:16.645Z,99.90
2018-07-07T10:52:45.143Z,99.90
2018-07-07T10:55:13.744Z,99.90
2018-07-07T10:57:42.293Z,99.90
2018-07-07T11:00:10.877Z,99.90
2018-07-07T11:02:39.488Z,99.90
2018-07-07T11:05:08.040Z,99.90
2018-07-07T11:07:36.543Z,99.90
2018-07-07T11:10:05.174Z,99.90
2018-07-07T11:15:01.979Z,99.90
2018-07-07T11:17:30.512Z,99.90
2018-07-07T11:19:59.074Z,99.90
2018-07-07T11:22:27.580Z,99.90
2018-07-07T11:24:56.171Z,99.90
2018-07-07T11:27:24.704Z,99.90
2018-07-07T11:29:53.373Z,99.90
2018-07-07T11:32:21.847Z,99.90
2018-07-07T11:34:50.412Z,99.90
2018-07-07T11:37:18.992Z,99.90
2018-07-07T11:39:47.571Z,99.90
2018-07-07T11:44:44.330Z,99.90
2018-07-07T11:49:41.128Z,99.90
2018-07-07T11:52:09.987Z,99.90
2018-07-07T11:54:38.494Z,99.90
2018-07-07T11:57:07.145Z,99.90
2018-07-07T12:02:03.984Z,99.90
2018-07-07T12:04:32.590Z,99.90
2018-07-07T12:07:07.491Z,99.90
2018-07-07T12:09:36.076Z,99.90
2018-07-07T12:12:04.630Z,99.90
2018-07-07T12:14:33.180Z,99.90
2018-07-07T12:17:02.003Z,99.90
2018-07-07T12:19:30.536Z,99.90
2018-07-07T12:24:27.336Z,99.90
2018-07-07T12:26:56.076Z,99.90
2018-07-07T12:29:24.584Z,99.90
2018-07-07T12:31:53.143Z,99.90
2018-07-07T12:34:21.664Z,99.90
2018-07-07T12:36:50.218Z,99.90
2018-07-07T12:39:18.780Z,99.90
2018-07-07T12:41:47.288Z,99.90
2018-07-07T12:44:15.825Z,99.90
2018-07-07T12:46:44.382Z,99.90
2018-07-07T12:49:12.911Z,99.10
2018-07-07T12:51:41.495Z,99.50
2018-07-07T12:54:10.044Z,97.10
2018-07-07T12:56:38.525Z,94.90
2018-07-07T12:59:07.056Z,97.10
2018-07-07T13:01:35.555Z,95.50
2018-07-07T13:04:04.113Z,95.50
2018-07-07T13:09:00.903Z,96.00
2018-07-07T13:13:57.741Z,96.00
2018-07-07T13:16:26.269Z,95.80
2018-07-07T13:18:55.388Z,95.90
2018-07-07T13:21:23.988Z,95.00
2018-07-07T13:23:52.573Z,94.30
2018-07-07T13:26:21.168Z,93.20
2018-07-07T13:28:49.726Z,93.10
2018-07-07T13:31:18.245Z,93.10
2018-07-07T13:33:46.861Z,94.40
2018-07-07T13:36:15.357Z,92.60
2018-07-07T13:38:43.925Z,92.60
2018-07-07T13:41:12.460Z,92.90
2018-07-07T13:43:41.021Z,93.10
2018-07-07T13:46:09.570Z,93.80
2018-07-07T13:48:38.097Z,93.10
2018-07-07T13:51:06.681Z,93.40
2018-07-07T13:53:35.212Z,94.00
2018-07-07T13:56:03.867Z,93.90
2018-07-07T13:58:32.455Z,93.80
2018-07-07T14:01:01.064Z,93.00
2018-07-07T14:03:29.742Z,92.90
2018-07-07T14:05:58.397Z,92.00
2018-07-07T14:08:27.857Z,91.80
2018-07-07T14:10:56.711Z,91.70
2018-07-07T14:13:25.295Z,91.90
2018-07-07T14:15:53.915Z,91.70
2018-07-07T14:18:22.444Z,92.10
2018-07-07T14:20:51.009Z,92.30
2018-07-07T14:23:19.613Z,91.30
2018-07-07T14:25:48.160Z,91.60
2018-07-07T14:28:16.708Z,91.50
2018-07-07T14:30:45.284Z,92.00
2018-07-07T14:33:13.825Z,92.10
2018-07-07T14:35:42.380Z,92.30
2018-07-07T14:38:10.893Z,92.70
2018-07-07T14:40:46.850Z,92.30
2018-07-07T14:43:15.556Z,92.70
2018-07-07T14:45:54.209Z,92.10
2018-07-07T14:48:22.758Z,92.50
2018-07-07T14:50:51.257Z,92.90
2018-07-07T14:53:19.805Z,92.90
2018-07-07T14:55:48.322Z,92.80
2018-07-07T14:58:16.921Z,94.40
2018-07-07T15:00:45.407Z,94.60
2018-07-07T15:03:13.958Z,95.10
2018-07-07T15:05:42.585Z,95.10
2018-07-07T15:08:11.123Z,94.90
2018-07-07T15:10:39.829Z,95.10
2018-07-07T15:13:08.389Z,95.50
2018-07-07T15:15:36.968Z,96.20
2018-07-07T15:18:05.538Z,96.10
2018-07-07T15:20:34.077Z,96.00
2018-07-07T15:23:02.673Z,95.30
2018-07-07T15:25:31.261Z,95.70
2018-07-07T15:30:28.116Z,93.10
2018-07-07T15:32:57.102Z,93.40
2018-07-07T15:35:27.053Z,92.80
2018-07-07T15:37:55.663Z,92.70
2018-07-07T15:40:24.420Z,93.00
2018-07-07T15:42:52.938Z,93.00
2018-07-07T15:45:21.556Z,93.70
2018-07-07T15:47:50.077Z,93.90
2018-07-07T15:50:18.748Z,94.50
2018-07-07T15:55:15.790Z,93.80
2018-07-07T15:57:44.317Z,94.10
2018-07-07T16:00:13.372Z,94.70
2018-07-07T16:02:42.080Z,95.50
2018-07-07T16:05:10.660Z,96.70
2018-07-07T16:07:39.169Z,97.50
2018-07-07T16:10:07.783Z,97.80
2018-07-07T16:12:36.506Z,97.60
2018-07-07T16:15:05.606Z,98.50
2018-07-07T16:20:02.388Z,98.90
2018-07-07T16:22:31.569Z,98.90
2018-07-07T16:25:00.073Z,98.30
2018-07-07T16:27:28.645Z,97.90
2018-07-07T16:29:57.368Z,97.50
2018-07-07T16:32:25.925Z,97.80
2018-07-07T16:34:54.478Z,97.10
2018-07-07T16:39:51.372Z,98.60
2018-07-07T16:42:19.977Z,98.40
2018-07-07T16:44:48.628Z,99.50
2018-07-07T16:49:45.510Z,99.90
2018-07-07T16:52:14.084Z,99.90
2018-07-07T16:54:43.460Z,99.90
2018-07-07T16:57:13.793Z,99.90
2018-07-07T16:59:42.781Z,99.90
2018-07-07T17:02:11.416Z,99.90
2018-07-07T17:04:40.020Z,99.90
2018-07-07T17:07:08.611Z,99.90
2018-07-07T17:09:37.267Z,99.90
2018-07-07T17:12:05.860Z,99.90
2018-07-07T17:14:34.786Z,99.90
2018-07-07T17:17:03.345Z,99.90
2018-07-07T17:19:31.978Z,99.90
2018-07-07T17:22:00.559Z,99.90
2018-07-07T17:24:29.917Z,99.90
2018-07-07T17:26:58.945Z,99.90
2018-07-07T17:29:27.876Z,99.90
2018-07-07T17:31:56.931Z,99.90
2018-07-07T17:34:26.147Z,99.90
2018-07-07T17:36:54.960Z,99.90
2018-07-07T17:39:23.578Z,99.90
2018-07-07T17:41:52.298Z,99.50
2018-07-07T17:44:20.911Z,99.80
2018-07-07T17:52:17.641Z,99.90
2018-07-07T17:54:46.992Z,99.30
2018-07-07T17:57:16.528Z,99.80
2018-07-07T17:59:45.160Z,99.90
2018-07-07T18:02:16.584Z,98.60
2018-07-07T18:04:45.392Z,98.30
2018-07-07T18:07:14.083Z,98.90
2018-07-07T18:09:43.554Z,99.60
2018-07-07T18:12:12.154Z,98.90
2018-07-07T18:14:42.024Z,99.30
2018-07-07T18:17:11.947Z,99.90
2018-07-07T18:19:42.235Z,99.90
2018-07-07T18:22:10.900Z,99.90
2018-07-07T18:24:41.341Z,98.00
2018-07-07T18:27:11.536Z,95.50
2018-07-07T18:32:08.405Z,95.30
2018-07-07T18:34:43.515Z,96.40
2018-07-07T18:37:12.068Z,97.50
2018-07-07T18:42:08.999Z,97.30
2018-07-07T18:44:37.584Z,97.90
2018-07-07T18:49:34.456Z,99.90
2018-07-07T18:52:03.064Z,99.90
2018-07-07T18:54:31.621Z,99.90
2018-07-07T18:57:00.225Z,99.90
2018-07-07T18:59:28.771Z,99.90
2018-07-07T19:01:57.452Z,99.90
2018-07-07T19:04:26.545Z,99.90
2018-07-07T19:06:55.728Z,99.90
2018-07-07T19:09:26.377Z,99.90
2018-07-07T19:11:55.979Z,99.90
2018-07-07T19:14:24.645Z,99.90
2018-07-07T19:16:55.227Z,99.90
2018-07-07T19:19:24.427Z,99.90
2018-07-07T19:21:58.345Z,99.90
2018-07-07T19:24:32.357Z,99.90
2018-07-07T19:27:05.537Z,99.90
2018-07-07T19:29:34.155Z,99.90
2018-07-07T19:32:07.956Z,99.90
2018-07-07T19:34:41.918Z,99.90
2018-07-07T19:37:18.300Z,99.90
2018-07-07T19:39:47.424Z,99.90
2018-07-07T19:42:16.092Z,99.90
2018-07-07T19:44:44.692Z,99.90
2018-07-07T19:49:41.895Z,99.90
2018-07-07T19:52:10.932Z,99.90
2018-07-07T19:54:39.516Z,99.90
2018-07-07T19:59:36.379Z,99.90
2018-07-07T20:02:05.005Z,99.90
2018-07-07T20:04:33.592Z,99.90
2018-07-07T20:07:02.348Z,99.90
2018-07-07T20:09:30.930Z,99.90
2018-07-07T20:11:59.578Z,99.90
2018-07-07T20:14:29.739Z,99.90
2018-07-07T20:17:02.042Z,99.90
2018-07-07T20:19:40.681Z,99.90
2018-07-07T20:22:09.838Z,99.90
2018-07-07T20:24:39.295Z,99.90
2018-07-07T20:27:14.216Z,99.90
2018-07-07T20:29:42.917Z,99.90
2018-07-07T20:32:16.747Z,99.90
2018-07-07T20:34:45.323Z,99.90
2018-07-07T20:37:13.901Z,99.90
2018-07-07T20:39:42.500Z,99.90
2018-07-07T20:42:11.097Z,99.90
2018-07-07T20:44:39.645Z,99.90
2018-07-07T20:47:08.235Z,99.90
2018-07-07T20:49:37.281Z,99.90
2018-07-07T20:54:34.150Z,99.90
2018-07-07T20:57:02.769Z,99.90
2018-07-07T20:59:31.571Z,99.90
2018-07-07T21:02:00.249Z,99.90
2018-07-07T21:04:28.776Z,99.90
2018-07-07T21:09:25.664Z,99.90
2018-07-07T21:11:54.227Z,99.90
2018-07-07T21:19:19.448Z,99.90
2018-07-07T21:21:47.971Z,99.90
2018-07-07T21:24:16.547Z,99.90
2018-07-07T21:26:45.100Z,99.90
2018-07-07T21:29:13.693Z,99.90
2018-07-07T21:31:42.288Z,99.90
2018-07-07T21:34:10.860Z,99.90
2018-07-07T21:36:39.397Z,99.90
2018-07-07T21:39:08.006Z,99.90
2018-07-07T21:41:36.569Z,99.90
2018-07-07T21:44:05.192Z,99.90
2018-07-07T21:46:33.765Z,99.90
2018-07-07T21:49:02.398Z,99.90
2018-07-07T21:51:30.973Z,99.90
2018-07-07T21:53:59.669Z,99.90
2018-07-07T21:56:28.521Z,99.90
2018-07-07T21:59:02.347Z,99.90
2018-07-07T22:01:56.096Z,99.90
2018-07-07T22:04:30.996Z,99.90
2018-07-07T22:07:05.273Z,99.90
2018-07-07T22:12:03.024Z,99.90
2018-07-07T22:14:31.931Z,99.90
2018-07-07T22:17:00.508Z,99.90
2018-07-07T22:19:29.088Z,99.90
2018-07-07T22:22:03.598Z,99.90
2018-07-07T22:24:32.268Z,99.90
2018-07-07T22:27:02.290Z,99.90
2018-07-07T22:29:31.263Z,99.90
2018-07-07T22:32:02.363Z,99.90
2018-07-07T22:34:38.985Z,99.90
2018-07-07T22:37:09.185Z,99.90
2018-07-07T22:39:41.406Z,99.90
2018-07-07T22:42:12.252Z,99.90
2018-07-07T22:44:42.108Z,99.90
2018-07-07T22:47:10.720Z,99.90
2018-07-07T22:49:39.517Z,99.90
2018-07-07T22:52:09.244Z,99.90
2018-07-07T22:54:37.963Z,99.90
2018-07-07T22:59:34.808Z,99.90
2018-07-07T23:02:03.696Z,99.90
2018-07-07T23:04:32.292Z,99.90
2018-07-07T23:07:00.866Z,99.90
2018-07-07T23:09:29.514Z,99.90
2018-07-07T23:11:58.105Z,99.90
2018-07-07T23:14:26.732Z,99.90
2018-07-07T23:16:59.278Z,99.90
2018-07-07T23:19:28.394Z,99.90
2018-07-07T23:21:57.616Z,99.90
2018-07-07T23:24:26.249Z,99.90
2018-07-07T23:26:54.792Z,99.90
2018-07-07T23:29:23.400Z,99.90
2018-07-07T23:31:51.977Z,99.90
2018-07-07T23:34:20.640Z,99.90
2018-07-07T23:39:17.703Z,99.90
2018-07-07T23:44:14.503Z,99.90
2018-07-07T23:46:43.039Z,99.90
2018-07-07T23:49:11.585Z,99.90
2018-07-07T23:51:40.262Z,99.90
2018-07-07T23:54:08.936Z,99.90
2018-07-07T23:56:37.478Z,99.90
2018-07-07T23:59:06.099Z,99.90
